Time;durP1;ratioP1;P1;durP2;ratioP2;P2;SDS_P1;SDS_P2;PMS_P1;PMS_P2;Temp;Humidity;BMP_temperature;BMP_pressure;BME280_temperature;BME280_humidity;BME280_pressure;Samples;Min_cycle;Max_cycle;Signal;HPM_P1;HPM_P2
2023/09/27 00:00:06;;;;;;;33.55;23.33;;;;;;;13.72;100.00;101672.66;4925796;29;20078;-76
2023/09/27 00:02:31;;;;;;;39.60;25.17;;;;;;;13.77;100.00;101688.81;4948223;29;20031;-86
2023/09/27 00:04:57;;;;;;;37.65;24.38;;;;;;;13.76;100.00;101693.44;4919160;29;20035;-86
2023/09/27 00:07:23;;;;;;;38.05;25.92;;;;;;;13.64;100.00;101697.16;4913889;29;20498;-87
2023/09/27 00:09:49;;;;;;;33.00;23.80;;;;;;;13.58;100.00;101697.66;4935866;29;20039;-87
2023/09/27 00:12:15;;;;;;;34.63;24.55;;;;;;;13.59;100.00;101694.78;4921977;29;20027;-86
2023/09/27 00:14:41;;;;;;;38.40;24.10;;;;;;;13.61;100.00;101700.19;4891615;29;20035;-86
2023/09/27 00:17:06;;;;;;;33.33;23.90;;;;;;;13.63;100.00;101697.31;4920162;29;20434;-87
2023/09/27 00:19:32;;;;;;;41.80;24.63;;;;;;;13.59;100.00;101703.03;4918067;29;20077;-87
2023/09/27 00:21:57;;;;;;;37.45;25.55;;;;;;;13.59;100.00;101708.53;4917459;29;20036;-87
2023/09/27 00:24:22;;;;;;;40.08;26.13;;;;;;;13.51;100.00;101712.88;4930066;29;20054;-88
2023/09/27 00:26:48;;;;;;;34.13;24.48;;;;;;;13.49;100.00;101712.13;4920098;29;20414;-86
2023/09/27 00:29:13;;;;;;;36.38;26.30;;;;;;;13.56;100.00;101710.63;4927225;29;20118;-87
2023/09/27 00:31:38;;;;;;;38.30;24.42;;;;;;;13.56;100.00;101708.78;4905193;29;20397;-86
2023/09/27 00:34:04;;;;;;;39.50;24.83;;;;;;;13.64;100.00;101716.41;4923772;29;20035;-87
2023/09/27 00:36:30;;;;;;;32.58;21.88;;;;;;;13.61;100.00;101702.94;4940631;29;20027;-87
2023/09/27 00:38:56;;;;;;;32.08;22.23;;;;;;;13.74;100.00;101711.06;4913140;29;20111;-87
2023/09/27 00:41:22;;;;;;;32.55;23.08;;;;;;;13.71;100.00;101706.69;4924726;29;20032;-87
2023/09/27 00:43:48;;;;;;;32.75;23.83;;;;;;;13.64;100.00;101702.66;4931634;29;20069;-87
2023/09/27 00:46:18;;;;;;;34.35;24.27;;;;;;;13.74;100.00;101697.31;4941464;29;20055;-87
2023/09/27 00:48:44;;;;;;;34.92;23.73;;;;;;;13.79;100.00;101701.47;4945495;29;20059;-86
2023/09/27 00:51:09;;;;;;;36.90;24.30;;;;;;;13.73;100.00;101693.69;4939464;29;20047;-87
2023/09/27 00:53:37;;;;;;;34.67;24.98;;;;;;;13.65;100.00;101703.56;4947672;29;20102;-87
2023/09/27 00:56:04;;;;;;;34.03;24.10;;;;;;;13.68;100.00;101709.69;4923989;29;20063;-86
2023/09/27 00:58:34;;;;;;;30.40;24.33;;;;;;;13.58;100.00;101704.03;4901964;29;20418;-87
2023/09/27 01:00:59;;;;;;;36.70;24.35;;;;;;;13.66;100.00;101708.94;4928645;29;20038;-87
2023/09/27 01:03:25;;;;;;;34.78;23.52;;;;;;;13.59;100.00;101711.31;4903743;29;20032;-87
2023/09/27 01:05:51;;;;;;;37.67;25.73;;;;;;;13.41;100.00;101713.63;4900484;29;20064;-87
2023/09/27 01:08:16;;;;;;;35.70;25.02;;;;;;;13.48;100.00;101699.34;4917809;29;20028;-87
2023/09/27 01:10:42;;;;;;;35.55;23.95;;;;;;;13.54;100.00;101688.78;4907664;29;20051;-77
2023/09/27 01:13:08;;;;;;;35.42;24.00;;;;;;;13.54;100.00;101698.88;4942955;29;20035;-76
2023/09/27 01:15:34;;;;;;;33.97;23.60;;;;;;;13.53;100.00;101702.66;4923111;29;20063;-76
2023/09/27 01:18:01;;;;;;;33.33;23.88;;;;;;;13.53;100.00;101706.28;4941348;29;20078;-76
2023/09/27 01:20:28;;;;;;;36.08;24.83;;;;;;;13.52;100.00;101704.50;4911515;29;20028;-76
2023/09/27 01:23:05;;;;;;;34.85;24.45;;;;;;;13.55;100.00;101696.00;4907359;29;20086;-76
2023/09/27 01:25:39;;;;;;;28.25;23.00;;;;;;;13.52;100.00;101689.88;4946879;29;20040;-76
2023/09/27 01:28:07;;;;;;;36.25;25.42;;;;;;;13.40;100.00;101691.72;4925918;29;20028;-76
2023/09/27 01:30:33;;;;;;;40.67;24.85;;;;;;;13.47;100.00;101694.88;4922683;29;20063;-76
2023/09/27 01:33:05;;;;;;;39.22;25.20;;;;;;;13.35;100.00;101694.81;4939373;29;20775;-76
2023/09/27 01:35:42;;;;;;;33.67;24.02;;;;;;;13.42;100.00;101684.22;4942982;29;20051;-76
2023/09/27 01:38:08;;;;;;;39.50;25.52;;;;;;;13.42;100.00;101687.84;4924316;29;20557;-76
2023/09/27 01:40:53;;;;;;;39.03;24.80;;;;;;;13.28;100.00;101693.53;4930932;29;20375;-76
2023/09/27 01:43:19;;;;;;;33.00;24.77;;;;;;;13.37;100.00;101673.56;4925232;29;20039;-76
2023/09/27 01:45:44;;;;;;;37.60;25.73;;;;;;;13.27;100.00;101682.63;4902898;29;20405;-76
2023/09/27 01:48:10;;;;;;;32.35;22.95;;;;;;;13.27;100.00;101661.50;4896461;29;20127;-76
2023/09/27 01:50:35;;;;;;;31.67;23.67;;;;;;;13.14;100.00;101656.06;4930834;29;20047;-76
2023/09/27 01:53:01;;;;;;;38.47;27.08;;;;;;;13.13;100.00;101646.06;4935026;29;20062;-76
2023/09/27 01:55:26;;;;;;;38.55;24.88;;;;;;;13.10;100.00;101632.56;4948512;29;20023;-76
2023/09/27 01:57:53;;;;;;;35.10;21.00;;;;;;;12.91;100.00;101638.59;4944252;29;20448;-76
2023/09/27 02:00:19;;;;;;;27.52;20.70;;;;;;;12.88;100.00;101641.56;4944738;29;20127;-76
2023/09/27 02:02:48;;;;;;;33.28;23.88;;;;;;;12.88;100.00;101647.06;4939512;29;20031;-76
2023/09/27 02:05:13;;;;;;;34.95;24.35;;;;;;;13.00;100.00;101656.25;4938989;29;20035;-76
2023/09/27 02:07:39;;;;;;;34.97;22.67;;;;;;;13.01;100.00;101655.25;4941281;29;20118;-76
2023/09/27 02:10:06;;;;;;;37.90;25.48;;;;;;;13.03;100.00;101643.13;4940174;29;20378;-76
2023/09/27 02:12:32;;;;;;;42.63;24.17;;;;;;;13.02;100.00;101641.41;4946857;29;20031;-76
2023/09/27 02:14:57;;;;;;;29.85;22.63;;;;;;;12.91;100.00;101652.34;4944335;29;20031;-76
2023/09/27 02:17:23;;;;;;;32.28;22.77;;;;;;;12.89;100.00;101657.09;4930190;29;20494;-76
2023/09/27 02:19:48;;;;;;;35.40;23.38;;;;;;;12.87;100.00;101650.81;4934602;29;20054;-76
2023/09/27 02:22:13;;;;;;;37.50;23.70;;;;;;;12.93;100.00;101660.47;4950793;29;20118;-76
2023/09/27 02:24:40;;;;;;;42.67;23.98;;;;;;;13.01;100.00;101663.50;4945501;29;20054;-77
2023/09/27 02:27:05;;;;;;;31.83;23.52;;;;;;;12.84;100.00;101659.31;4927679;29;20031;-76
2023/09/27 02:29:30;;;;;;;34.08;24.15;;;;;;;12.78;100.00;101660.63;4918708;29;20807;-76
2023/09/27 02:31:56;;;;;;;38.70;23.63;;;;;;;12.81;100.00;101665.03;4924729;29;20036;-76
2023/09/27 02:34:21;;;;;;;32.30;23.75;;;;;;;12.71;100.00;101664.84;4927245;29;20105;-76
2023/09/27 02:36:48;;;;;;;35.17;25.08;;;;;;;12.67;100.00;101664.22;4931479;29;20091;-76
2023/09/27 02:39:14;;;;;;;39.85;25.73;;;;;;;12.69;100.00;101656.72;4943669;28;20032;-76
2023/09/27 02:41:40;;;;;;;39.13;25.05;;;;;;;12.75;100.00;101671.00;4938316;29;20043;-76
2023/09/27 02:44:05;;;;;;;37.80;24.38;;;;;;;12.95;100.00;101667.59;4940606;29;20054;-77
2023/09/27 02:46:31;;;;;;;34.22;24.10;;;;;;;13.00;100.00;101662.66;4944493;29;20102;-76
2023/09/27 02:48:56;;;;;;;38.42;24.25;;;;;;;12.95;100.00;101670.34;4919541;29;20083;-76
2023/09/27 02:51:21;;;;;;;35.70;25.08;;;;;;;12.95;100.00;101670.34;4906355;29;20038;-76
2023/09/27 02:53:47;;;;;;;36.88;24.27;;;;;;;12.81;100.00;101667.78;4927503;29;20070;-76
2023/09/27 02:56:13;;;;;;;33.05;23.92;;;;;;;12.82;100.00;101670.41;4922582;29;21120;-77
2023/09/27 02:58:39;;;;;;;33.42;22.80;;;;;;;12.69;100.00;101675.97;4935191;29;20123;-77
2023/09/27 03:01:04;;;;;;;34.50;23.90;;;;;;;12.65;100.00;101681.78;4946225;29;20189;-76
2023/09/27 03:03:30;;;;;;;32.60;23.13;;;;;;;12.72;100.00;101688.56;4947240;29;20488;-77
2023/09/27 03:05:57;;;;;;;34.35;24.20;;;;;;;12.82;100.00;101688.75;4941914;29;20031;-76
2023/09/27 03:08:25;;;;;;;38.40;24.00;;;;;;;12.79;100.00;101680.75;4917902;29;20028;-76
2023/09/27 03:10:50;;;;;;;36.88;26.67;;;;;;;12.75;100.00;101679.22;4925350;29;20493;-76
2023/09/27 03:13:16;;;;;;;34.95;24.42;;;;;;;12.74;100.00;101671.97;4947674;29;20505;-76
2023/09/27 03:15:43;;;;;;;32.85;24.45;;;;;;;12.69;100.00;101670.47;4929272;29;20039;-76
2023/09/27 03:18:09;;;;;;;39.85;24.70;;;;;;;12.74;100.00;101680.22;4950257;29;20046;-76
2023/09/27 03:20:36;;;;;;;28.45;20.77;;;;;;;12.57;100.00;101673.25;4918121;29;20039;-76
2023/09/27 03:23:01;;;;;;;30.05;22.77;;;;;;;12.71;100.00;101669.44;4907056;29;20024;-76
2023/09/27 03:25:26;;;;;;;35.40;23.33;;;;;;;12.60;100.00;101657.41;4919064;29;20039;-76
2023/09/27 03:27:52;;;;;;;42.40;24.52;;;;;;;12.47;100.00;101637.34;4939838;29;20513;-76
2023/09/27 03:30:17;;;;;;;35.17;24.40;;;;;;;12.52;100.00;101648.84;4915483;29;20121;-76
2023/09/27 03:32:43;;;;;;;37.10;24.00;;;;;;;12.68;100.00;101656.84;4924790;29;20027;-76
2023/09/27 03:35:09;;;;;;;33.75;24.90;;;;;;;12.67;100.00;101658.72;4916088;29;20038;-76
2023/09/27 03:37:35;;;;;;;33.42;21.50;;;;;;;12.60;100.00;101667.53;4922981;29;20117;-77
2023/09/27 03:40:13;;;;;;;26.55;20.90;;;;;;;12.54;100.00;101662.47;4909485;29;20028;-76
2023/09/27 03:42:39;;;;;;;32.45;20.48;;;;;;;12.52;100.00;101672.72;4946831;29;20035;-76
2023/09/27 03:45:05;;;;;;;32.22;20.20;;;;;;;12.47;100.00;101679.41;4912269;29;20047;-76
2023/09/27 03:47:31;;;;;;;31.85;20.00;;;;;;;12.45;100.00;101677.78;4904868;29;20042;-76
2023/09/27 03:49:56;;;;;;;28.35;18.50;;;;;;;12.54;100.00;101685.31;4921673;29;20414;-76
2023/09/27 03:52:21;;;;;;;31.35;20.33;;;;;;;12.29;100.00;101678.03;4912306;29;20391;-76
2023/09/27 03:54:47;;;;;;;31.40;20.85;;;;;;;12.40;100.00;101678.13;4923723;29;20723;-76
2023/09/27 03:57:13;;;;;;;38.90;21.50;;;;;;;12.49;100.00;101677.44;4926489;29;20035;-77
2023/09/27 03:59:41;;;;;;;25.48;20.42;;;;;;;12.52;100.00;101678.22;4931480;29;20069;-76
2023/09/27 04:02:07;;;;;;;30.27;21.48;;;;;;;12.48;100.00;101674.81;4939895;29;20094;-76
2023/09/27 04:04:33;;;;;;;30.13;21.67;;;;;;;12.52;100.00;101675.47;4932947;29;20039;-76
2023/09/27 04:06:58;;;;;;;32.53;21.15;;;;;;;12.46;100.00;101676.78;4939053;29;20465;-76
2023/09/27 04:09:24;;;;;;;35.22;22.65;;;;;;;12.42;100.00;101684.38;4938586;29;20047;-76
2023/09/27 04:11:49;;;;;;;33.20;22.30;;;;;;;12.58;100.00;101703.34;4926702;29;20058;-76
2023/09/27 04:14:15;;;;;;;27.20;21.17;;;;;;;12.54;100.00;101704.56;4944239;29;20039;-76
2023/09/27 04:16:42;;;;;;;27.15;21.05;;;;;;;12.51;100.00;101704.81;4943694;29;20500;-76
2023/09/27 04:19:08;;;;;;;27.88;21.25;;;;;;;12.52;100.00;101703.81;4938875;29;20039;-76
2023/09/27 04:21:33;;;;;;;33.38;21.80;;;;;;;12.50;100.00;101689.31;4940290;29;20094;-76
2023/09/27 04:23:59;;;;;;;32.72;20.38;;;;;;;12.62;100.00;101688.38;4917163;29;20049;-75
2023/09/27 04:26:25;;;;;;;29.45;21.35;;;;;;;12.49;100.00;101682.94;4939618;29;20111;-76
2023/09/27 04:28:52;;;;;;;36.22;21.50;;;;;;;12.51;100.00;101688.31;4937030;29;20106;-77
2023/09/27 04:31:18;;;;;;;31.58;20.20;;;;;;;12.30;100.00;101688.91;4945953;29;20063;-77
2023/09/27 04:33:44;;;;;;;30.98;18.60;;;;;;;12.16;100.00;101697.25;4941524;29;20501;-76
2023/09/27 04:36:17;;;;;;;30.83;20.70;;;;;;;12.32;100.00;101705.28;4907850;29;20490;-76
2023/09/27 04:38:46;;;;;;;;;;;;;;;12.23;100.00;101708.66;4945415;29;20027;-78
2023/09/27 04:41:16;;;;;;;29.35;21.30;;;;;;;12.13;100.00;101708.47;4936664;29;19915;-88
2023/09/27 04:43:44;;;;;;;29.83;19.40;;;;;;;12.29;100.00;101708.22;4936045;29;20042;-87
2023/09/27 04:46:12;;;;;;;30.38;18.88;;;;;;;12.36;100.00;101705.91;4918346;29;20036;-87
2023/09/27 04:48:38;;;;;;;35.50;19.65;;;;;;;12.38;100.00;101702.09;4935885;29;20035;-86
2023/09/27 04:51:03;;;;;;;30.42;21.25;;;;;;;12.26;100.00;101697.47;4926007;29;20047;-88
2023/09/27 04:53:30;;;;;;;28.77;21.05;;;;;;;12.23;100.00;101697.69;4938462;29;20050;-88
2023/09/27 04:55:56;;;;;;;27.73;19.77;;;;;;;12.29;100.00;101695.38;4934499;29;20031;-86
2023/09/27 04:58:21;;;;;;;24.67;19.33;;;;;;;12.20;100.00;101697.91;4932710;29;20042;-87
2023/09/27 05:00:47;;;;;;;25.90;19.58;;;;;;;12.14;100.00;101704.72;4916360;29;20095;-86
2023/09/27 05:03:12;;;;;;;31.35;19.25;;;;;;;11.99;100.00;101703.97;4926200;29;20032;-86
2023/09/27 05:05:37;;;;;;;25.23;19.05;;;;;;;12.06;100.00;101716.25;4932919;29;20126;-86
2023/09/27 05:08:03;;;;;;;29.25;20.08;;;;;;;12.02;100.00;101714.75;4945320;29;20038;-85
2023/09/27 05:10:28;;;;;;;39.22;20.83;;;;;;;12.07;100.00;101709.78;4939904;29;20046;-85
2023/09/27 05:12:54;;;;;;;33.28;22.60;;;;;;;12.18;100.00;101706.25;4937224;29;20505;-86
2023/09/27 05:15:19;;;;;;;31.00;21.25;;;;;;;12.23;100.00;101694.94;4938741;29;20032;-86
2023/09/27 05:17:46;;;;;;;30.92;20.55;;;;;;;12.22;100.00;101685.84;4927790;29;20087;-86
2023/09/27 05:20:12;;;;;;;33.22;19.42;;;;;;;12.23;100.00;101682.13;4940939;29;20091;-88
2023/09/27 05:22:38;;;;;;;31.65;19.27;;;;;;;12.08;100.00;101680.47;4932110;29;20072;-87
2023/09/27 05:25:08;;;;;;;25.45;19.02;;;;;;;12.02;100.00;101695.53;4939111;29;20055;-87
2023/09/27 05:27:34;;;;;;;28.08;19.60;;;;;;;12.03;100.00;101705.50;4932817;29;20062;-86
2023/09/27 05:30:00;;;;;;;30.05;20.92;;;;;;;12.02;100.00;101687.28;4916106;29;20035;-87
2023/09/27 05:32:26;;;;;;;32.35;21.65;;;;;;;11.90;100.00;101679.88;4942260;29;20028;-88
2023/09/27 05:34:51;;;;;;;36.97;22.38;;;;;;;11.94;100.00;101676.84;4941919;29;20043;-86
2023/09/27 05:37:17;;;;;;;44.97;21.85;;;;;;;12.06;100.00;101682.44;4917756;29;20071;-88
2023/09/27 05:39:42;;;;;;;31.83;23.08;;;;;;;12.25;100.00;101688.38;4920286;29;20127;-87
2023/09/27 05:42:08;;;;;;;32.58;22.77;;;;;;;12.22;100.00;101691.31;4933822;29;20482;-87
2023/09/27 05:44:33;;;;;;;29.10;21.40;;;;;;;12.26;100.00;101695.59;4918962;29;20035;-87
2023/09/27 05:46:59;;;;;;;31.00;22.25;;;;;;;12.26;100.00;101686.50;4931818;29;20047;-88
2023/09/27 05:49:25;;;;;;;36.00;21.15;;;;;;;12.34;100.00;101686.81;4935162;29;20039;-87
2023/09/27 05:51:52;;;;;;;48.42;21.70;;;;;;;12.32;100.00;101691.53;4901522;29;20031;-88
2023/09/27 05:54:19;;;;;;;46.10;21.75;;;;;;;12.44;100.00;101687.00;4928579;28;20027;-87
2023/09/27 05:56:50;;;;;;;34.63;20.13;;;;;;;12.25;100.00;101696.59;4898229;29;20046;-85
2023/09/27 05:59:17;;;;;;;30.90;20.77;;;;;;;12.18;100.00;101703.50;4902581;29;20123;-87
2023/09/27 06:01:43;;;;;;;41.38;20.30;;;;;;;12.26;100.00;101702.97;4939547;29;20047;-88
2023/09/27 06:04:09;;;;;;;29.25;20.48;;;;;;;12.32;100.00;101694.28;4936570;29;20135;-87
2023/09/27 06:06:39;;;;;;;29.55;19.85;;;;;;;12.39;100.00;101702.94;4929819;29;20114;-87
2023/09/27 06:09:05;;;;;;;29.17;20.92;;;;;;;12.31;100.00;101696.16;4889785;29;21187;-85
2023/09/27 06:11:32;;;;;;;35.45;22.38;;;;;;;12.23;100.00;101675.72;4928501;29;20033;-87
2023/09/27 06:13:59;;;;;;;34.38;21.15;;;;;;;12.32;100.00;101678.69;4939382;29;20040;-86
2023/09/27 06:16:24;;;;;;;28.25;19.98;;;;;;;12.29;100.00;101678.91;4920884;29;20027;-86
2023/09/27 06:18:50;;;;;;;35.00;21.58;;;;;;;12.35;100.00;101680.34;4912844;29;20075;-86
2023/09/27 06:21:16;;;;;;;30.02;20.05;;;;;;;12.30;100.00;101690.78;4922232;29;20054;-85
2023/09/27 06:23:42;;;;;;;37.60;20.63;;;;;;;12.19;100.00;101683.31;4923700;29;20758;-85
2023/09/27 06:26:08;;;;;;;40.58;20.63;;;;;;;12.28;100.00;101685.41;4923712;29;20541;-85
2023/09/27 06:28:36;;;;;;;34.05;19.58;;;;;;;12.35;100.00;101685.81;4938392;29;20564;-85
2023/09/27 06:31:02;;;;;;;43.88;22.00;;;;;;;12.45;100.00;101686.03;4921186;29;20393;-85
2023/09/27 06:33:27;;;;;;;36.30;21.70;;;;;;;12.52;100.00;101692.81;4922565;29;20501;-85
2023/09/27 06:35:53;;;;;;;31.92;20.73;;;;;;;12.62;100.00;101693.00;4921416;29;20187;-86
2023/09/27 06:38:21;;;;;;;32.25;21.75;;;;;;;12.72;100.00;101683.06;4936980;29;20036;-90
2023/09/27 06:40:48;;;;;;;29.63;19.85;;;;;;;13.10;100.00;101692.16;4924399;29;20482;-91
2023/09/27 06:43:14;;;;;;;34.47;21.40;;;;;;;13.24;100.00;101689.25;4946297;29;20066;-93
2023/09/27 06:45:40;;;;;;;28.33;21.48;;;;;;;13.53;100.00;101683.38;4924945;29;20035;-93
2023/09/27 06:48:09;;;;;;;30.42;19.35;;;;;;;13.72;100.00;101661.66;5001519;23;20039;-92
2023/09/27 06:50:35;;;;;;;30.00;18.42;;;;;;;14.08;100.00;101669.84;5778093;23;20044;-95
2023/09/27 06:53:00;;;;;;;25.70;19.20;;;;;;;14.33;100.00;101665.94;4939264;29;20074;-93
2023/09/27 06:55:28;;;;;;;31.42;17.90;;;;;;;14.51;100.00;101680.97;4938031;29;20066;-89
2023/09/27 06:57:53;;;;;;;25.23;16.65;;;;;;;14.58;100.00;101678.59;4910602;29;20485;-95
2023/09/27 07:00:23;;;;;;;23.88;15.77;;;;;;;14.79;100.00;101684.22;4912555;29;20063;-92
2023/09/27 07:02:49;;;;;;;26.08;15.38;;;;;;;15.12;100.00;101675.97;4926642;28;20046;-78
2023/09/27 07:05:15;;;;;;;25.17;15.15;;;;;;;15.44;100.00;101673.19;4931979;28;20375;-78
2023/09/27 07:07:41;;;;;;;24.88;14.25;;;;;;;15.31;100.00;101673.38;4924856;28;20515;-77
2023/09/27 07:10:08;;;;;;;19.75;14.55;;;;;;;15.20;100.00;101676.19;4952014;28;20039;-77
2023/09/27 07:12:35;;;;;;;21.67;15.00;;;;;;;15.26;100.00;101675.66;4938507;28;20032;-77
2023/09/27 07:15:09;;;;;;;22.30;13.73;;;;;;;15.29;100.00;101680.06;4949841;28;20042;-76
2023/09/27 07:17:34;;;;;;;16.50;13.38;;;;;;;15.27;100.00;101677.44;4952457;28;20032;-76
2023/09/27 07:20:00;;;;;;;19.65;14.57;;;;;;;15.20;100.00;101668.81;4919682;29;20089;-76
2023/09/27 07:22:25;;;;;;;23.73;14.77;;;;;;;15.14;100.00;101673.97;4916453;29;20453;-76
2023/09/27 07:24:50;;;;;;;25.88;13.90;;;;;;;15.23;100.00;101665.78;4920982;29;20134;-75
2023/09/27 07:27:16;;;;;;;23.05;15.48;;;;;;;15.12;100.00;101663.06;4918419;28;20465;-76
2023/09/27 07:29:41;;;;;;;20.35;13.68;;;;;;;15.15;100.00;101657.28;4918411;28;20062;-76
2023/09/27 07:32:07;;;;;;;18.33;13.38;;;;;;;15.07;100.00;101659.84;4956150;28;20027;-76
2023/09/27 07:34:33;;;;;;;20.45;14.13;;;;;;;15.03;100.00;101667.47;4903355;29;20039;-76
2023/09/27 07:36:58;;;;;;;21.42;14.35;;;;;;;15.07;100.00;101670.88;4937819;28;20492;-76
2023/09/27 07:39:24;;;;;;;23.52;14.50;;;;;;;15.19;100.00;101678.06;4931300;29;20036;-76
2023/09/27 07:41:49;;;;;;;23.15;15.15;;;;;;;15.21;100.00;101686.22;4954473;28;20467;-77
2023/09/27 07:44:17;;;;;;;19.10;15.00;;;;;;;15.21;100.00;101684.34;4958005;28;20027;-77
2023/09/27 07:46:44;;;;;;;27.83;14.77;;;;;;;15.28;100.00;101697.59;4928291;29;20035;-77
2023/09/27 07:49:09;;;;;;;19.67;13.52;;;;;;;15.42;100.00;101695.41;4962809;28;20023;-76
2023/09/27 07:51:35;;;;;;;21.08;13.77;;;;;;;15.35;100.00;101699.72;4946387;28;20118;-77
2023/09/27 07:54:03;;;;;;;20.75;14.13;;;;;;;15.48;100.00;101698.66;4953099;28;20074;-76
2023/09/27 07:56:30;;;;;;;21.33;13.63;;;;;;;15.53;100.00;101694.50;4945412;29;20038;-77
2023/09/27 07:58:56;;;;;;;19.33;14.65;;;;;;;15.74;100.00;101696.38;4920942;29;20078;-77
2023/09/27 08:01:23;;;;;;;27.88;13.82;;;;;;;15.85;100.00;101701.00;4943900;28;20114;-77
2023/09/27 08:03:52;;;;;;;21.67;13.63;;;;;;;16.40;100.00;101690.53;4943663;28;20039;-77
2023/09/27 08:06:19;;;;;;;20.88;12.35;;;;;;;16.53;100.00;101685.63;4949711;28;20035;-76
2023/09/27 08:08:45;;;;;;;21.52;12.43;;;;;;;16.57;100.00;101668.78;4944192;28;20020;-77
2023/09/27 08:11:13;;;;;;;22.60;12.93;;;;;;;17.02;100.00;101660.91;4940454;29;20504;-77
2023/09/27 08:13:40;;;;;;;16.50;13.13;;;;;;;17.36;100.00;101660.44;4955258;28;20063;-76
2023/09/27 08:16:07;;;;;;;21.27;12.60;;;;;;;17.44;100.00;101662.50;4940320;28;20150;-77
2023/09/27 08:18:34;;;;;;;16.88;11.55;;;;;;;17.83;100.00;101666.09;4954579;28;20023;-77
2023/09/27 08:21:03;;;;;;;23.92;12.57;;;;;;;17.57;100.00;101667.75;4934015;28;20409;-76
2023/09/27 08:23:29;;;;;;;18.30;11.80;;;;;;;17.75;100.00;101679.81;4943466;28;20031;-77
2023/09/27 08:25:55;;;;;;;14.98;11.40;;;;;;;17.81;100.00;101681.13;4953992;28;20028;-77
2023/09/27 08:28:21;;;;;;;16.83;10.90;;;;;;;18.26;100.00;101676.78;4953019;28;20083;-77
2023/09/27 08:30:48;;;;;;;15.88;11.75;;;;;;;18.04;100.00;101681.69;4950590;29;20442;-78
2023/09/27 08:33:14;;;;;;;15.25;10.38;;;;;;;18.15;100.00;101677.84;4949418;28;20031;-78
2023/09/27 08:35:39;;;;;;;16.90;11.02;;;;;;;18.21;100.00;101676.38;4944257;28;20043;-75
2023/09/27 08:38:05;;;;;;;17.98;10.98;;;;;;;17.94;100.00;101675.31;4935405;29;20086;-75
2023/09/27 08:40:30;;;;;;;18.13;10.23;;;;;;;18.27;100.00;101684.97;4953689;28;20026;-75
2023/09/27 08:42:57;;;;;;;17.67;11.18;;;;;;;18.25;100.00;101677.81;4917518;28;20496;-76
2023/09/27 08:45:24;;;;;;;16.13;11.15;;;;;;;18.48;100.00;101684.72;4953080;28;20035;-75
2023/09/27 08:47:50;;;;;;;18.40;11.25;;;;;;;18.66;100.00;101687.56;4950819;28;20019;-75
2023/09/27 08:50:18;;;;;;;18.45;11.63;;;;;;;18.47;100.00;101673.78;4937869;29;20039;-75
2023/09/27 08:52:51;;;;;;;16.67;12.15;;;;;;;18.43;100.00;101672.34;4949170;28;20126;-75
2023/09/27 08:55:18;;;;;;;17.35;11.63;;;;;;;18.89;100.00;101674.16;4937600;29;20038;-75
2023/09/27 08:57:49;;;;;;;21.27;12.43;;;;;;;19.43;100.00;101671.44;4940196;28;20503;-76
2023/09/27 09:00:27;;;;;;;22.25;12.05;;;;;;;19.99;100.00;101672.06;4949221;28;20051;-76
2023/09/27 09:02:57;;;;;;;23.00;12.32;;;;;;;20.05;100.00;101681.66;4948778;29;20027;-75
2023/09/27 09:05:24;;;;;;;19.98;12.63;;;;;;;20.64;100.00;101686.53;4952473;28;20036;-76
2023/09/27 09:07:53;;;;;;;24.08;12.10;;;;;;;20.90;100.00;101709.59;4942873;28;20118;-76
2023/09/27 09:10:22;;;;;;;15.38;11.57;;;;;;;21.08;100.00;101711.38;4951229;28;20516;-76
2023/09/27 09:12:49;;;;;;;18.60;11.98;;;;;;;20.92;100.00;101707.53;4952068;29;20394;-76
2023/09/27 09:15:30;;;;;;;15.77;12.13;;;;;;;20.96;100.00;101685.78;4950975;28;20031;-76
2023/09/27 09:17:57;;;;;;;17.05;11.88;;;;;;;20.71;100.00;101682.00;4952897;28;20054;-76
2023/09/27 09:20:31;;;;;;;19.60;11.18;;;;;;;21.60;100.00;101693.56;4952355;28;20551;-76
2023/09/27 09:23:00;;;;;;;17.00;10.52;;;;;;;21.53;100.00;101698.09;4937225;29;20031;-76
2023/09/27 09:25:28;;;;;;;21.17;10.73;;;;;;;20.77;100.00;101699.97;4954474;28;20067;-76
2023/09/27 09:28:04;;;;;;;18.75;10.80;;;;;;;20.31;100.00;101691.91;4934575;29;20023;-76
2023/09/27 09:30:40;;;;;;;13.50;9.27;;;;;;;20.46;100.00;101693.00;4949707;28;20027;-76
2023/09/27 09:33:15;;;;;;;15.13;10.05;;;;;;;20.31;100.00;101698.31;4950459;28;20035;-75
2023/09/27 09:35:41;;;;;;;14.55;9.25;;;;;;;20.21;100.00;101692.00;4952573;28;20038;-76
2023/09/27 09:38:06;;;;;;;21.00;10.75;;;;;;;20.60;100.00;101685.97;4953451;29;20039;-75
2023/09/27 09:40:34;;;;;;;17.98;10.57;;;;;;;21.61;100.00;101681.38;4957150;28;20035;-76
2023/09/27 09:43:00;;;;;;;16.02;10.52;;;;;;;21.75;100.00;101686.25;4953749;28;20121;-76
2023/09/27 09:45:26;;;;;;;15.07;10.45;;;;;;;21.85;100.00;101681.34;4956606;28;20036;-76
2023/09/27 09:47:52;;;;;;;18.65;10.98;;;;;;;21.84;100.00;101681.53;4939873;29;20051;-76
2023/09/27 09:50:18;;;;;;;16.10;11.63;;;;;;;21.39;100.00;101671.75;4939719;29;20024;-76
2023/09/27 09:52:57;;;;;;;20.63;11.00;;;;;;;22.03;100.00;101666.34;4950190;28;20138;-77
2023/09/27 09:55:31;;;;;;;17.95;10.98;;;;;;;21.51;100.00;101653.66;4956094;28;20037;-77
2023/09/27 09:58:10;;;;;;;17.40;13.20;;;;;;;21.05;100.00;101648.56;4952016;28;20057;-76
2023/09/27 10:00:38;;;;;;;15.00;11.07;;;;;;;20.84;100.00;101648.13;4953922;28;20493;-76
2023/09/27 10:03:07;;;;;;;14.40;11.35;;;;;;;20.75;100.00;101639.75;4953785;28;20039;-76
2023/09/27 10:05:38;;;;;;;18.25;12.18;;;;;;;20.96;100.00;101644.00;4947149;28;20027;-75
2023/09/27 10:08:06;;;;;;;22.98;12.63;;;;;;;21.14;100.00;101637.44;4950421;28;20032;-76
2023/09/27 10:10:33;;;;;;;19.52;13.35;;;;;;;20.97;100.00;101636.53;4958889;28;20228;-76
2023/09/27 10:12:59;;;;;;;21.13;12.27;;;;;;;20.84;100.00;101626.75;4952892;28;20456;-76
2023/09/27 10:15:26;;;;;;;17.48;12.00;;;;;;;20.86;100.00;101618.25;4950716;28;20034;-76
2023/09/27 10:17:52;;;;;;;15.52;12.43;;;;;;;21.02;100.00;101614.59;4954169;28;20031;-76
2023/09/27 10:20:22;;;;;;;17.45;12.60;;;;;;;21.34;100.00;101602.63;4952752;29;20130;-76
2023/09/27 10:22:50;;;;;;;25.40;13.82;;;;;;;21.34;100.00;101602.63;4952821;28;20024;-77
2023/09/27 10:25:29;;;;;;;18.02;12.32;;;;;;;21.53;100.00;101603.31;4944115;28;20118;-76
2023/09/27 10:28:04;;;;;;;18.02;13.73;;;;;;;21.50;100.00;101603.69;4947159;28;20058;-78
2023/09/27 10:30:41;;;;;;;23.52;14.13;;;;;;;22.20;100.00;101594.63;4953352;28;20078;-76
2023/09/27 10:33:16;;;;;;;25.20;14.25;;;;;;;22.51;100.00;101597.53;4946967;28;20066;-76
2023/09/27 10:35:46;;;;;;;22.83;16.92;;;;;;;22.44;100.00;101592.84;4948725;29;20433;-77
2023/09/27 10:38:12;;;;;;;27.10;18.40;;;;;;;22.76;100.00;101591.81;4950836;28;20035;-76
2023/09/27 10:40:42;;;;;;;34.97;22.00;;;;;;;22.61;100.00;101586.09;4952707;28;20038;-76
2023/09/27 10:43:08;;;;;;;40.47;21.42;;;;;;;22.33;100.00;101586.63;4945507;28;20028;-76
2023/09/27 10:45:33;;;;;;;28.27;20.67;;;;;;;22.43;100.00;101583.63;4953797;29;20023;-76
2023/09/27 10:48:15;;;;;;;27.33;18.33;;;;;;;22.43;100.00;101580.81;4949906;28;20512;-76
2023/09/27 10:50:52;;;;;;;28.30;18.00;;;;;;;21.97;100.00;101580.59;4943996;28;20398;-77
2023/09/27 10:53:18;;;;;;;22.90;16.92;;;;;;;21.83;100.00;101573.84;4967909;28;20042;-76
2023/09/27 10:55:44;;;;;;;28.30;17.70;;;;;;;21.89;100.00;101575.94;4938218;28;20060;-76
2023/09/27 10:58:16;;;;;;;23.38;16.00;;;;;;;22.26;100.00;101581.91;4974313;28;20027;-76
2023/09/27 11:00:51;;;;;;;25.30;15.63;;;;;;;22.88;100.00;101573.56;4953843;28;20374;-76